Terminal Aerodrome Forecast
Issued by NWS

Home | Current Version | Previous Version | Text Only | Print | Product List | Glossary On
Versions: 1 2 3 4 5 6 7 8 9 10 11 12 13 14 15
000
FTUS44 KLIX 282331
TAFGPT
TAF
KGPT 282331Z 2900/2924 14015KT 5SM BR OVC007
     FM290100 15015KT P6SM BKN015
     FM291100 15015G24KT P6SM BKN015
     FM291600 14020KT P6SM BKN025=

USA.gov is the U.S. government's official web portal to all federal, state and local government web resources and services.